Time;durP1;ratioP1;P1;durP2;ratioP2;P2;SDS_P1;SDS_P2;PMS_P1;PMS_P2;Temp;Humidity;BMP_temperature;BMP_pressure;BME280_temperature;BME280_humidity;BME280_pressure;Samples;Min_cycle;Max_cycle;Signal;HPM_P1;HPM_P2
2024/03/17 00:01:03;;;;;;;29.23;10.18;;;;;;;7.66;100.00;100205.28;5075384;28;20456;-72
2024/03/17 00:03:29;;;;;;;24.15;7.60;;;;;;;7.58;100.00;100206.13;5042563;28;20059;-72
2024/03/17 00:05:59;;;;;;;33.35;8.80;;;;;;;7.55;100.00;100200.28;5058897;28;20455;-72
2024/03/17 00:08:25;;;;;;;27.83;8.23;;;;;;;7.53;100.00;100197.75;5042206;28;20446;-72
2024/03/17 00:10:51;;;;;;;36.03;9.00;;;;;;;7.46;100.00;100197.63;5058972;28;20032;-72
2024/03/17 00:13:18;;;;;;;27.10;8.32;;;;;;;7.44;100.00;100193.44;5075108;28;20429;-72
2024/03/17 00:15:44;;;;;;;23.42;8.30;;;;;;;7.46;100.00;100197.63;5042280;28;20039;-72
2024/03/17 00:18:12;;;;;;;25.77;7.32;;;;;;;7.40;100.00;100197.44;5042175;28;20037;-73
2024/03/17 00:20:41;;;;;;;28.90;6.85;;;;;;;7.44;100.00;100199.63;5042716;28;20072;-72
2024/03/17 00:23:07;;;;;;;21.27;5.72;;;;;;;7.36;100.00;100196.97;5042509;28;20043;-72
2024/03/17 00:25:34;;;;;;;25.73;6.20;;;;;;;7.25;100.00;100192.78;5042114;28;20036;-72
2024/03/17 00:28:02;;;;;;;24.40;6.88;;;;;;;7.32;100.00;100198.28;5041816;28;20028;-74
2024/03/17 00:30:28;;;;;;;17.10;5.60;;;;;;;7.37;100.00;100193.28;5075020;28;20028;-74
2024/03/17 00:32:54;;;;;;;27.05;7.95;;;;;;;7.38;100.00;100194.97;5042043;28;20038;-72
2024/03/17 00:35:22;;;;;;;35.65;13.40;;;;;;;7.35;100.00;100197.94;5041670;28;20391;-72
2024/03/17 00:37:48;;;;;;;35.42;10.70;;;;;;;7.21;100.00;100187.94;5042041;28;20051;-73
2024/03/17 00:40:16;;;;;;;25.85;8.38;;;;;;;7.11;100.00;100182.75;5058378;28;20033;-74
2024/03/17 00:42:42;;;;;;;29.13;8.88;;;;;;;7.15;100.00;100189.44;5058354;28;20033;-73
2024/03/17 00:45:09;;;;;;;30.55;6.95;;;;;;;7.10;100.00;100186.44;5041837;28;20082;-74
2024/03/17 00:47:36;;;;;;;23.00;7.70;;;;;;;7.10;100.00;100188.28;5058227;28;20033;-74
2024/03/17 00:50:03;;;;;;;52.25;21.63;;;;;;;7.01;100.00;100190.97;5074431;28;20029;-73
2024/03/17 00:52:29;;;;;;;36.33;17.25;;;;;;;6.97;100.00;100194.97;5041445;28;20398;-74
2024/03/17 00:54:55;;;;;;;23.75;9.05;;;;;;;6.99;100.00;100192.97;5041515;28;20043;-74
2024/03/17 00:57:20;;;;;;;27.52;12.05;;;;;;;7.04;100.00;100187.94;5042388;28;20028;-73
2024/03/17 00:59:46;;;;;;;30.77;7.25;;;;;;;6.94;100.00;100181.09;5041375;28;20426;-73
2024/03/17 01:02:13;;;;;;;19.90;8.00;;;;;;;7.00;100.00;100175.06;5041380;28;20036;-74
2024/03/17 01:04:42;;;;;;;20.25;6.20;;;;;;;7.06;100.00;100174.41;5057826;28;20028;-73
2024/03/17 01:07:07;;;;;;;22.30;7.47;;;;;;;7.08;100.00;100182.25;5074190;28;20028;-74
2024/03/17 01:09:33;;;;;;;23.77;6.70;;;;;;;7.07;100.00;100180.59;5041373;28;20086;-73
2024/03/17 01:11:59;;;;;;;19.92;6.00;;;;;;;7.09;100.00;100168.72;5041581;28;20028;-74
2024/03/17 01:14:25;;;;;;;25.15;5.30;;;;;;;7.17;100.00;100173.22;5040944;28;20391;-74
2024/03/17 01:16:51;;;;;;;18.00;5.13;;;;;;;7.23;100.00;100169.91;5041249;28;20090;-73
2024/03/17 01:19:17;;;;;;;28.92;6.03;;;;;;;7.32;100.00;100168.03;5073780;28;20033;-73
2024/03/17 01:21:42;;;;;;;27.58;6.47;;;;;;;7.37;100.00;100161.19;5040798;28;20033;-73
2024/03/17 01:24:08;;;;;;;31.13;8.23;;;;;;;7.36;100.00;100164.03;5040913;28;20383;-73
2024/03/17 01:26:34;;;;;;;25.55;6.82;;;;;;;7.31;100.00;100163.72;5040992;28;20043;-73
2024/03/17 01:28:59;;;;;;;19.33;5.43;;;;;;;7.15;100.00;100157.38;5041044;28;20076;-73
2024/03/17 01:31:25;;;;;;;21.27;5.45;;;;;;;6.91;100.00;100158.22;5040818;28;20463;-73
2024/03/17 01:33:51;;;;;;;20.38;5.30;;;;;;;6.68;100.00;100167.88;5040673;28;20470;-74
2024/03/17 01:36:18;;;;;;;16.73;4.60;;;;;;;6.49;100.00;100166.34;5040857;28;20431;-74
2024/03/17 01:38:44;;;;;;;20.67;4.47;;;;;;;6.30;100.00;100162.13;5040880;28;20036;-73
2024/03/17 01:41:10;;;;;;;17.40;4.70;;;;;;;6.27;100.00;100165.09;5040610;28;20089;-74
2024/03/17 01:43:36;;;;;;;18.92;5.10;;;;;;;6.29;100.00;100160.44;5040526;28;20434;-74
2024/03/17 01:46:02;;;;;;;24.73;5.32;;;;;;;6.34;100.00;100158.13;5040635;28;20028;-73
2024/03/17 01:48:28;;;;;;;17.95;5.35;;;;;;;6.30;100.00;100162.97;5039792;28;20025;-73
2024/03/17 01:50:56;;;;;;;14.05;4.30;;;;;;;6.29;100.00;100158.59;5039817;28;20045;-73
2024/03/17 01:53:25;;;;;;;12.93;4.20;;;;;;;6.38;100.00;100154.13;5040401;28;20051;-73
2024/03/17 01:55:52;;;;;;;20.38;4.43;;;;;;;6.43;100.00;100148.28;5040544;28;20043;-73
2024/03/17 01:58:20;;;;;;;12.30;4.07;;;;;;;6.42;100.00;100142.13;5056787;28;20105;-73
2024/03/17 02:00:46;;;;;;;17.30;4.45;;;;;;;6.42;100.00;100135.94;5072953;28;20027;-73
2024/03/17 02:03:12;;;;;;;17.13;4.28;;;;;;;6.44;100.00;100136.63;5040404;28;20028;-73
2024/03/17 02:05:38;;;;;;;12.88;4.40;;;;;;;6.47;100.00;100137.13;5056249;28;20032;-73
2024/03/17 02:08:05;;;;;;;14.02;4.50;;;;;;;6.46;100.00;100137.31;5039698;28;20029;-74
2024/03/17 02:10:31;;;;;;;13.77;4.75;;;;;;;6.36;100.00;100130.25;5056517;28;20040;-73
2024/03/17 02:12:56;;;;;;;20.33;5.68;;;;;;;6.26;100.00;100120.72;5039832;28;20036;-73
2024/03/17 02:15:22;;;;;;;19.77;4.97;;;;;;;6.33;100.00;100119.09;5040066;28;20479;-73
2024/03/17 02:17:48;;;;;;;16.15;5.57;;;;;;;6.40;100.00;100117.41;5039937;28;20033;-73
2024/03/17 02:20:14;;;;;;;16.90;5.53;;;;;;;6.46;100.00;100118.63;5039883;28;20036;-73
2024/03/17 02:22:39;;;;;;;21.27;5.00;;;;;;;6.48;100.00;100112.06;5056351;28;20036;-73
2024/03/17 02:25:08;;;;;;;15.13;4.78;;;;;;;6.48;100.00;100108.56;5056159;28;20036;-73
2024/03/17 02:27:35;;;;;;;22.70;9.80;;;;;;;6.45;100.00;100099.06;5056475;28;20021;-73
2024/03/17 02:30:08;;;;;;;23.95;8.43;;;;;;;6.61;100.00;100098.22;5056311;28;20478;-73
2024/03/17 02:32:34;;;;;;;34.35;17.48;;;;;;;6.77;100.00;100100.94;5056547;28;20090;-73
2024/03/17 02:35:00;;;;;;;27.77;9.05;;;;;;;7.00;100.00;100095.72;5039661;28;20542;-73
2024/03/17 02:37:26;;;;;;;34.10;10.35;;;;;;;7.17;100.00;100093.00;5039603;28;20029;-73
2024/03/17 02:39:52;;;;;;;30.88;9.35;;;;;;;7.40;100.00;100085.94;5039463;28;20489;-73
2024/03/17 02:42:18;;;;;;;33.00;8.68;;;;;;;7.53;100.00;100071.19;5038889;28;20052;-73
2024/03/17 02:44:44;;;;;;;18.92;5.60;;;;;;;7.63;100.00;100074.50;5072448;28;20060;-73
2024/03/17 02:47:10;;;;;;;26.50;6.60;;;;;;;7.74;100.00;100086.69;5039090;28;20062;-73
2024/03/17 02:49:37;;;;;;;30.65;7.53;;;;;;;7.82;100.00;100079.44;5056113;28;20451;-73
2024/03/17 02:52:04;;;;;;;29.65;7.00;;;;;;;7.93;100.00;100076.34;5055897;28;20044;-73
2024/03/17 02:54:30;;;;;;;23.88;5.60;;;;;;;8.01;100.00;100072.81;5055920;28;20032;-73
2024/03/17 02:56:58;;;;;;;18.45;4.55;;;;;;;8.07;100.00;100068.59;5039356;28;20036;-73
2024/03/17 02:59:24;;;;;;;21.23;5.97;;;;;;;8.08;100.00;100064.91;5039627;28;20044;-73
2024/03/17 03:01:52;;;;;;;22.70;5.95;;;;;;;8.10;100.00;100060.22;5039216;28;20025;-73
2024/03/17 03:04:17;;;;;;;27.42;6.18;;;;;;;8.10;100.00;100057.56;5072484;28;20071;-73
2024/03/17 03:06:43;;;;;;;25.35;6.57;;;;;;;8.10;100.00;100046.84;5039123;28;20064;-73
2024/03/17 03:09:13;;;;;;;29.33;6.50;;;;;;;8.08;100.00;100046.19;5055745;28;20036;-73
2024/03/17 03:11:40;;;;;;;28.35;6.53;;;;;;;8.05;100.00;100041.19;5056836;28;20135;-73
2024/03/17 03:14:06;;;;;;;21.80;4.50;;;;;;;7.95;100.00;100048.59;5055840;28;20039;-73
2024/03/17 03:16:33;;;;;;;20.00;4.40;;;;;;;7.80;100.00;100040.47;5055564;28;20033;-73
2024/03/17 03:18:59;;;;;;;18.85;4.75;;;;;;;7.59;100.00;100035.72;5039101;28;20028;-74
2024/03/17 03:21:25;;;;;;;21.90;4.45;;;;;;;7.32;100.00;100029.81;5055554;28;20051;-74
2024/03/17 03:23:51;;;;;;;12.98;4.13;;;;;;;7.11;100.00;100041.06;5039291;28;20131;-73
2024/03/17 03:26:17;;;;;;;18.40;4.07;;;;;;;7.17;100.00;100034.19;5039079;28;20044;-73
2024/03/17 03:28:43;;;;;;;27.50;5.60;;;;;;;7.27;100.00;100034.84;5055220;28;20028;-73
2024/03/17 03:31:16;;;;;;;20.27;4.68;;;;;;;7.27;100.00;100029.50;5038876;28;20130;-73
2024/03/17 03:33:42;;;;;;;19.98;4.07;;;;;;;7.15;100.00;100029.03;5040211;28;20043;-73
2024/03/17 03:36:12;;;;;;;16.38;4.35;;;;;;;6.92;100.00;100018.22;5038736;28;20033;-73
2024/03/17 03:38:38;;;;;;;20.05;5.25;;;;;;;6.88;100.00;100024.06;5072133;28;20033;-73
2024/03/17 03:41:08;;;;;;;19.75;4.68;;;;;;;6.93;100.00;100022.59;5055304;28;20387;-73
2024/03/17 03:43:34;;;;;;;25.08;6.40;;;;;;;7.14;100.00;100029.19;5071856;28;20025;-73
2024/03/17 03:46:01;;;;;;;18.08;4.88;;;;;;;7.27;100.00;100024.97;5038827;28;20382;-73
2024/03/17 03:48:26;;;;;;;27.95;5.57;;;;;;;7.17;100.00;100016.34;5038633;28;20067;-73
2024/03/17 03:50:52;;;;;;;35.63;11.60;;;;;;;7.14;100.00;100022.00;5038939;28;20037;-73
2024/03/17 03:53:20;;;;;;;24.85;6.22;;;;;;;7.16;100.00;100028.03;5039294;28;20051;-73
2024/03/17 03:55:45;;;;;;;22.48;5.35;;;;;;;7.22;100.00;100029.16;5038870;28;20071;-73
2024/03/17 03:58:12;;;;;;;24.77;6.43;;;;;;;7.10;100.00;100022.53;5055262;28;20067;-73
2024/03/17 04:00:39;;;;;;;26.95;7.28;;;;;;;6.93;100.00;100019.06;5038849;28;20059;-73
2024/03/17 04:03:05;;;;;;;26.38;6.20;;;;;;;6.85;100.00;100027.91;5038806;28;20054;-73
2024/03/17 04:05:31;;;;;;;23.67;5.43;;;;;;;6.83;100.00;100009.41;5054681;28;20553;-73
2024/03/17 04:07:57;;;;;;;27.67;7.57;;;;;;;6.81;100.00;100006.06;5054845;28;20124;-73
2024/03/17 04:10:24;;;;;;;17.73;5.20;;;;;;;6.83;100.00;100004.06;5038169;28;20040;-74
2024/03/17 04:12:51;;;;;;;26.02;5.78;;;;;;;6.89;100.00;99989.19;5039143;28;20032;-73
2024/03/17 04:15:17;;;;;;;26.42;7.18;;;;;;;6.90;100.00;99976.63;5075115;28;20437;-73
2024/03/17 04:17:42;;;;;;;22.30;6.30;;;;;;;6.92;100.00;99979.97;5042203;28;20115;-73
2024/03/17 04:20:12;;;;;;;21.52;5.78;;;;;;;6.92;100.00;99975.47;5042147;28;20039;-73
2024/03/17 04:22:38;;;;;;;26.60;6.13;;;;;;;7.08;100.00;99976.44;5059077;28;20047;-73
2024/03/17 04:25:04;;;;;;;32.15;7.72;;;;;;;7.21;100.00;99984.72;5041805;28;20033;-73
2024/03/17 04:27:33;;;;;;;32.80;6.43;;;;;;;7.30;100.00;99974.84;5041978;28;20540;-73
2024/03/17 04:29:59;;;;;;;26.45;5.88;;;;;;;7.46;100.00;99982.78;5058578;28;20029;-73
2024/03/17 04:32:28;;;;;;;34.33;6.80;;;;;;;7.61;100.00;99977.53;5041949;28;20044;-73
2024/03/17 04:34:54;;;;;;;27.45;6.90;;;;;;;7.84;100.00;99975.72;5059128;28;20040;-73
2024/03/17 04:37:19;;;;;;;28.02;7.30;;;;;;;8.06;100.00;99970.53;5041906;28;20040;-73
2024/03/17 04:39:46;;;;;;;27.08;5.95;;;;;;;8.14;100.00;99976.66;5041805;28;20074;-73
2024/03/17 04:42:16;;;;;;;31.08;6.40;;;;;;;8.20;100.00;99976.97;5057837;28;20082;-73
2024/03/17 04:44:43;;;;;;;26.52;6.03;;;;;;;8.13;100.00;99982.22;5058820;28;20145;-73
2024/03/17 04:47:09;;;;;;;26.77;7.13;;;;;;;7.97;100.00;99972.47;5057971;28;20028;-73
2024/03/17 04:49:43;;;;;;;29.85;6.82;;;;;;;7.92;100.00;99964.94;5058183;28;20033;-73
2024/03/17 04:52:10;;;;;;;29.55;5.40;;;;;;;7.85;100.00;99964.00;5041497;28;20037;-73
2024/03/17 04:54:36;;;;;;;24.27;7.07;;;;;;;8.00;100.00;99957.88;5057755;28;20040;-73
2024/03/17 04:57:02;;;;;;;23.83;6.72;;;;;;;8.23;100.00;99966.75;5041334;28;20044;-73
2024/03/17 04:59:28;;;;;;;34.13;7.30;;;;;;;8.40;100.00;99956.75;5041406;28;20119;-73
2024/03/17 05:01:54;;;;;;;35.13;7.15;;;;;;;8.48;100.00;99959.34;5041449;28;20067;-73
2024/03/17 05:04:20;;;;;;;22.15;6.55;;;;;;;8.57;100.00;99960.94;5041350;28;20068;-73
2024/03/17 05:06:46;;;;;;;29.38;5.50;;;;;;;8.62;100.00;99965.72;5041129;28;20119;-74
2024/03/17 05:09:15;;;;;;;26.73;6.15;;;;;;;8.71;100.00;99951.25;5041268;28;20475;-73
2024/03/17 05:11:41;;;;;;;24.38;5.55;;;;;;;8.77;100.00;99963.09;5041060;28;20036;-73
2024/03/17 05:14:07;;;;;;;29.85;6.35;;;;;;;8.75;100.00;99968.63;5041332;28;20082;-73
2024/03/17 05:16:33;;;;;;;20.75;5.65;;;;;;;8.80;100.00;99960.03;5057743;28;20036;-73
2024/03/17 05:18:59;;;;;;;14.02;4.63;;;;;;;8.84;100.00;99961.34;5074287;28;20043;-73
2024/03/17 05:21:25;;;;;;;29.83;7.35;;;;;;;8.87;100.00;99950.25;5040512;28;20063;-73
2024/03/17 05:23:52;;;;;;;23.50;5.57;;;;;;;8.93;100.00;99956.72;5057314;28;20055;-73
2024/03/17 05:26:18;;;;;;;24.85;6.78;;;;;;;8.94;100.00;99958.38;5073025;28;20093;-73
2024/03/17 05:28:46;;;;;;;26.65;6.72;;;;;;;9.00;100.00;99954.97;5040666;28;20422;-73
2024/03/17 05:31:17;;;;;;;20.95;6.07;;;;;;;9.07;100.00;99955.88;5057640;28;20037;-73
2024/03/17 05:33:43;;;;;;;19.40;5.13;;;;;;;9.11;100.00;99949.13;5041738;28;20032;-73
2024/03/17 05:36:11;;;;;;;24.65;6.00;;;;;;;9.09;100.00;99940.44;5057491;28;20039;-73
2024/03/17 05:38:37;;;;;;;18.58;4.57;;;;;;;9.08;100.00;99940.63;5040901;28;20036;-73
2024/03/17 05:41:05;;;;;;;21.33;5.32;;;;;;;9.07;100.00;99939.78;5040869;28;20459;-73
2024/03/17 05:43:38;;;;;;;21.55;4.35;;;;;;;9.05;100.00;99933.78;5040314;28;20055;-73
2024/03/17 05:46:09;;;;;;;19.45;4.32;;;;;;;9.05;100.00;99928.44;5074399;28;20032;-73
2024/03/17 05:48:39;;;;;;;21.88;5.25;;;;;;;9.04;100.00;99929.44;5056576;28;20035;-73
2024/03/17 05:51:05;;;;;;;19.63;5.68;;;;;;;9.04;100.00;99921.38;5057421;28;20471;-73
2024/03/17 05:53:34;;;;;;;25.70;5.85;;;;;;;9.02;100.00;99921.59;5056867;28;20036;-73
2024/03/17 05:56:04;;;;;;;23.10;5.10;;;;;;;9.00;100.00;99928.16;5040750;28;20098;-73
2024/03/17 05:58:29;;;;;;;24.77;4.88;;;;;;;8.98;100.00;99914.09;5056441;28;20028;-74
2024/03/17 06:00:56;;;;;;;13.63;4.28;;;;;;;9.04;100.00;99913.34;5040190;28;20523;-73
2024/03/17 06:03:21;;;;;;;13.90;3.95;;;;;;;9.07;100.00;99918.31;5039962;28;20410;-73
2024/03/17 06:05:48;;;;;;;15.70;4.07;;;;;;;9.14;100.00;99910.38;5040691;28;20045;-73
2024/03/17 06:08:14;;;;;;;15.80;5.13;;;;;;;9.17;100.00;99913.50;5039947;28;20028;-73
2024/03/17 06:10:44;;;;;;;15.45;3.83;;;;;;;9.23;100.00;99915.47;5040191;28;20035;-73
2024/03/17 06:13:14;;;;;;;20.52;4.93;;;;;;;9.25;100.00;99909.88;5056600;28;20039;-73
2024/03/17 06:15:40;;;;;;;15.40;4.05;;;;;;;9.26;100.00;99908.84;5057367;28;20040;-73
2024/03/17 06:18:11;;;;;;;18.48;3.75;;;;;;;9.30;100.00;99903.97;5040414;28;20081;-73
2024/03/17 06:20:43;;;;;;;20.33;4.28;;;;;;;9.34;100.00;99903.41;5056978;28;20060;-73
2024/03/17 06:23:09;;;;;;;13.02;3.58;;;;;;;9.34;100.00;99902.56;5056255;28;20064;-73
2024/03/17 06:25:40;;;;;;;8.80;3.13;;;;;;;9.38;100.00;99910.03;5056215;28;20027;-76
2024/03/17 06:28:06;;;;;;;17.13;3.25;;;;;;;9.38;100.00;99910.03;5056226;28;20435;-73
2024/03/17 06:30:32;;;;;;;17.02;3.75;;;;;;;9.41;100.00;99906.16;5039905;28;20067;-73
2024/03/17 06:32:58;;;;;;;14.65;3.38;;;;;;;9.42;100.00;99902.44;5056313;28;20028;-73
2024/03/17 06:35:26;;;;;;;6.72;2.47;;;;;;;9.40;100.00;99908.00;5055314;28;20544;-73
2024/03/17 06:37:52;;;;;;;10.18;3.13;;;;;;;9.41;100.00;99900.78;5056099;28;20147;-73
2024/03/17 06:40:18;;;;;;;11.07;2.97;;;;;;;9.46;100.00;99909.09;5039622;28;20056;-73
2024/03/17 06:42:44;;;;;;;7.75;2.75;;;;;;;9.49;100.00;99906.03;5039140;28;20060;-73
2024/03/17 06:45:10;;;;;;;13.35;3.08;;;;;;;9.60;100.00;99902.03;5039578;28;20062;-73
2024/03/17 06:47:39;;;;;;;12.88;3.35;;;;;;;9.67;100.00;99901.06;5055887;28;20432;-74
2024/03/17 06:50:06;;;;;;;9.82;3.15;;;;;;;9.73;100.00;99901.34;5039407;28;20097;-73
2024/03/17 06:52:32;;;;;;;13.07;3.60;;;;;;;9.74;100.00;99900.28;5055884;28;20047;-73
2024/03/17 06:54:58;;;;;;;8.80;3.00;;;;;;;9.76;100.00;99891.03;5039248;28;20387;-73
2024/03/17 06:57:24;;;;;;;14.35;3.65;;;;;;;9.78;100.00;99898.91;5039860;28;20079;-73
2024/03/17 06:59:50;;;;;;;6.22;2.15;;;;;;;9.82;100.00;99897.50;5039306;28;20039;-73
2024/03/17 07:02:18;;;;;;;9.50;2.63;;;;;;;9.85;100.00;99897.13;5071975;28;20032;-73
2024/03/17 07:04:47;;;;;;;6.53;2.50;;;;;;;9.89;100.00;99901.91;5039627;28;20036;-73
2024/03/17 07:07:13;;;;;;;6.28;1.80;;;;;;;9.96;100.00;99896.59;5039062;28;20024;-73
2024/03/17 07:09:42;;;;;;;8.18;2.30;;;;;;;10.04;100.00;99904.53;5072108;28;20389;-73
2024/03/17 07:12:09;;;;;;;8.55;2.33;;;;;;;10.13;100.00;99900.69;5038962;28;20035;-73
2024/03/17 07:14:35;;;;;;;7.38;1.98;;;;;;;10.21;100.00;99906.94;5055217;28;20029;-73
2024/03/17 07:17:01;;;;;;;6.50;2.25;;;;;;;10.26;100.00;99896.44;5039841;28;20235;-73
2024/03/17 07:19:26;;;;;;;6.55;2.15;;;;;;;10.31;100.00;99902.91;5039113;28;20127;-73
2024/03/17 07:21:55;;;;;;;7.65;2.17;;;;;;;10.30;100.00;99892.38;5038520;28;20040;-73
2024/03/17 07:24:24;;;;;;;5.43;1.90;;;;;;;10.32;100.00;99907.28;5038949;28;20040;-73
2024/03/17 07:26:50;;;;;;;10.20;2.30;;;;;;;10.32;100.00;99907.28;5039020;28;20029;-73
2024/03/17 07:29:16;;;;;;;11.40;3.60;;;;;;;10.31;100.00;99905.59;5038957;28;20032;-73
2024/03/17 07:31:42;;;;;;;19.08;8.82;;;;;;;10.33;100.00;99908.09;5055102;28;20108;-73
2024/03/17 07:34:08;;;;;;;24.35;8.82;;;;;;;10.33;100.00;99906.25;5055304;28;20367;-73
2024/03/17 07:36:34;;;;;;;17.33;8.95;;;;;;;10.29;100.00;99906.81;5072675;28;20035;-73
2024/03/17 07:39:00;;;;;;;5.53;2.78;;;;;;;10.24;100.00;99902.00;5071663;28;20471;-73
2024/03/17 07:41:25;;;;;;;15.10;9.02;;;;;;;10.22;100.00;99903.22;5039058;28;20024;-73
2024/03/17 07:43:51;;;;;;;5.53;3.08;;;;;;;10.25;100.00;99905.53;5039013;28;20037;-73
2024/03/17 07:46:16;;;;;;;5.78;2.10;;;;;;;10.29;100.00;99902.28;5038907;28;20075;-73
2024/03/17 07:48:44;;;;;;;12.63;5.20;;;;;;;10.39;100.00;99898.41;5040420;28;20380;-73
2024/03/17 07:51:12;;;;;;;12.90;7.38;;;;;;;10.47;100.00;99903.66;5075412;28;20459;-73
2024/03/17 07:53:39;;;;;;;8.30;4.65;;;;;;;10.47;100.00;99907.16;5042600;28;20490;-74
2024/03/17 07:56:06;;;;;;;10.48;5.28;;;;;;;10.40;100.00;99905.44;5058780;28;20029;-73
2024/03/17 07:58:33;;;;;;;8.93;3.22;;;;;;;10.32;100.00;99909.13;5075542;28;20039;-73
2024/03/17 08:01:03;;;;;;;5.97;2.42;;;;;;;10.29;100.00;99906.81;5042450;28;20123;-73
2024/03/17 08:03:29;;;;;;;5.10;3.17;;;;;;;10.30;100.00;99892.38;5042436;28;20040;-73
2024/03/17 08:05:55;;;;;;;1.27;0.85;;;;;;;10.34;100.00;99905.19;5042290;28;20123;-73
2024/03/17 08:08:21;;;;;;;2.75;0.90;;;;;;;10.37;100.00;99898.59;5041997;28;20123;-74
2024/03/17 08:10:48;;;;;;;0.63;0.63;;;;;;;10.41;100.00;99905.25;5058183;28;20040;-73
2024/03/17 08:13:23;;;;;;;5.82;1.25;;;;;;;10.43;100.00;99905.09;5058467;28;20036;-74
2024/03/17 08:15:57;;;;;;;2.10;1.17;;;;;;;10.46;100.00;99902.81;5058635;28;20363;-73
2024/03/17 08:18:22;;;;;;;3.70;2.08;;;;;;;10.44;100.00;99904.03;5058696;28;20123;-74
2024/03/17 08:20:48;;;;;;;1.50;1.23;;;;;;;10.38;100.00;99904.84;5057817;28;20128;-74
2024/03/17 08:23:14;;;;;;;1.55;0.70;;;;;;;10.30;100.00;99909.31;5042072;28;20067;-74
2024/03/17 08:25:40;;;;;;;0.80;0.65;;;;;;;10.29;100.00;99904.97;5041924;28;20351;-74
2024/03/17 08:28:07;;;;;;;0.50;0.50;;;;;;;10.29;100.00;99917.56;5041584;28;20064;-74
2024/03/17 08:30:33;;;;;;;1.15;0.80;;;;;;;10.34;100.00;99921.31;5058639;28;20047;-73
2024/03/17 08:32:59;;;;;;;0.50;0.50;;;;;;;10.42;100.00;99914.97;5058075;28;20043;-74
2024/03/17 08:35:25;;;;;;;0.50;0.50;;;;;;;10.49;100.00;99915.88;5041760;28;20060;-73
2024/03/17 08:37:51;;;;;;;0.90;0.52;;;;;;;10.61;100.00;99926.91;5058042;28;20470;-73
2024/03/17 08:40:17;;;;;;;0.80;0.80;;;;;;;10.77;100.00;99928.47;5041724;28;20044;-73
2024/03/17 08:42:43;;;;;;;1.80;0.70;;;;;;;10.91;100.00;99916.75;5058222;28;20463;-73
2024/03/17 08:45:12;;;;;;;1.40;1.08;;;;;;;10.91;100.00;99927.50;5041513;28;20048;-74
2024/03/17 08:47:38;;;;;;;2.72;1.02;;;;;;;10.75;100.00;99927.84;5074504;28;20107;-73
2024/03/17 08:50:07;;;;;;;0.73;0.73;;;;;;;10.78;100.00;99936.31;5041694;28;20035;-73
2024/03/17 08:52:36;;;;;;;1.75;0.80;;;;;;;10.85;100.00;99931.00;5058132;28;20040;-74
2024/03/17 08:55:09;;;;;;;0.70;0.70;;;;;;;11.06;100.00;99934.59;5057708;28;20036;-74
2024/03/17 08:57:35;;;;;;;4.85;0.68;;;;;;;11.21;100.00;99940.69;5042105;28;20028;-73
2024/03/17 09:00:17;;;;;;;1.85;1.00;;;;;;;11.33;100.00;99941.78;5041648;28;20044;-73
2024/03/17 09:02:42;;;;;;;0.50;0.50;;;;;;;11.45;100.00;99933.94;5056639;28;20089;-74
2024/03/17 09:05:08;;;;;;;0.50;0.50;;;;;;;11.45;100.00;99939.34;5039327;28;20032;-74
2024/03/17 09:07:34;;;;;;;1.52;0.88;;;;;;;11.60;100.00;99937.31;5039120;28;20024;-74
2024/03/17 09:09:59;;;;;;;0.93;0.93;;;;;;;11.63;100.00;99947.69;5039332;28;20471;-74
2024/03/17 09:12:27;;;;;;;0.50;0.50;;;;;;;11.53;100.00;99957.19;5039525;28;20028;-74
2024/03/17 09:14:53;;;;;;;0.55;0.50;;;;;;;11.38;100.00;99955.47;5056015;28;20383;-73
2024/03/17 09:17:20;;;;;;;0.50;0.50;;;;;;;11.31;100.00;99964.56;5040145;28;20033;-73
2024/03/17 09:19:47;;;;;;;0.47;0.47;;;;;;;11.34;100.00;99964.16;5074824;28;20494;-73
2024/03/17 09:22:13;;;;;;;0.50;0.50;;;;;;;11.32;100.00;99968.88;5057591;28;20478;-73
2024/03/17 09:24:40;;;;;;;0.40;0.40;;;;;;;11.30;100.00;99966.41;5041806;28;20131;-73
2024/03/17 09:27:06;;;;;;;0.55;0.55;;;;;;;11.19;100.00;99970.50;5041043;28;20059;-73
2024/03/17 09:29:32;;;;;;;0.50;0.50;;;;;;;11.18;100.00;99981.47;5057139;28;20069;-73
2024/03/17 09:31:58;;;;;;;0.50;0.50;;;;;;;11.17;100.00;99979.81;5041015;28;20051;-73
2024/03/17 09:34:24;;;;;;;0.50;0.50;;;;;;;11.29;100.00;99988.97;5040016;28;20028;-73
2024/03/17 09:36:50;;;;;;;0.50;0.50;;;;;;;11.40;100.00;99985.69;5039999;28;20063;-73
2024/03/17 09:39:16;;;;;;;0.40;0.40;;;;;;;11.51;100.00;99992.41;5040759;28;20490;-73
2024/03/17 09:41:42;;;;;;;0.50;0.50;;;;;;;11.50;100.00;99995.28;5040628;28;20108;-73
2024/03/17 09:44:12;;;;;;;0.50;0.50;;;;;;;11.51;100.00;99992.41;5040679;28;20040;-74
2024/03/17 09:46:38;;;;;;;0.40;0.40;;;;;;;11.74;100.00;99996.59;5057106;28;20020;-74
2024/03/17 09:49:04;;;;;;;0.50;0.50;;;;;;;11.90;100.00;100006.22;5040555;28;20471;-74
2024/03/17 09:51:31;;;;;;;0.60;0.60;;;;;;;11.79;100.00;100018.38;5040523;28;20123;-73
2024/03/17 09:53:57;;;;;;;1.20;0.52;;;;;;;11.85;100.00;100029.19;5057273;28;20032;-74
2024/03/17 09:56:23;;;;;;;0.50;0.50;;;;;;;11.83;100.00;100030.44;5040439;28;20038;-73
2024/03/17 09:58:50;;;;;;;0.55;0.55;;;;;;;11.58;100.00;100047.09;5040473;28;20040;-73
2024/03/17 10:01:17;;;;;;;0.50;0.50;;;;;;;11.26;100.00;100067.41;5056842;28;20041;-73
2024/03/17 10:03:56;;;;;;;1.65;0.63;;;;;;;11.04;100.00;100072.03;5056406;28;20111;-73
2024/03/17 10:06:23;;;;;;;0.40;0.40;;;;;;;10.67;100.00;100087.44;5058901;28;20037;-73
2024/03/17 10:08:53;;;;;;;1.05;0.57;;;;;;;10.14;100.00;100103.00;5039865;28;20394;-73
2024/03/17 10:11:32;;;;;;;1.95;0.70;;;;;;;9.90;100.00;100118.41;5056120;28;20064;-73
2024/03/17 10:13:59;;;;;;;1.17;0.70;;;;;;;9.77;100.00;100128.13;5040213;28;20549;-73
2024/03/17 10:16:29;;;;;;;1.00;0.82;;;;;;;9.59;100.00;100140.06;5072791;28;20467;-74
2024/03/17 10:19:13;;;;;;;0.98;0.60;;;;;;;9.55;100.00;100152.22;5040254;28;20031;-73
2024/03/17 10:21:48;;;;;;;0.82;0.77;;;;;;;9.54;100.00;100149.69;5056964;28;20378;-74
2024/03/17 10:24:20;;;;;;;0.50;0.50;;;;;;;9.51;100.00;100156.25;5056852;28;20036;-74
2024/03/17 10:26:52;;;;;;;0.73;0.60;;;;;;;9.43;100.00;100164.41;5056747;28;20032;-73
2024/03/17 10:29:24;;;;;;;0.45;0.45;;;;;;;9.41;100.00;100177.97;5039905;28;20032;-74
2024/03/17 10:31:52;;;;;;;0.50;0.50;;;;;;;9.28;100.00;100185.00;5056724;28;20044;-73
2024/03/17 10:34:24;;;;;;;0.70;0.70;;;;;;;9.35;100.00;100197.50;5056147;28;20482;-73
2024/03/17 10:36:51;;;;;;;0.50;0.50;;;;;;;9.59;100.00;100200.97;5057278;28;20033;-74
2024/03/17 10:39:29;;;;;;;0.50;0.50;;;;;;;9.79;100.00;100201.25;5057017;28;20036;-73
2024/03/17 10:42:01;;;;;;;0.60;0.60;;;;;;;10.08;100.00;100206.66;5056547;28;20028;-73
2024/03/17 10:44:31;;;;;;;0.57;0.57;;;;;;;10.44;100.00;100221.19;5055666;28;20071;-73
2024/03/17 10:46:58;;;;;;;0.50;0.50;;;;;;;10.73;100.00;100217.59;5072062;28;20033;-73
2024/03/17 10:49:32;;;;;;;0.68;0.68;;;;;;;10.91;100.00;100222.56;5071914;28;20020;-74
2024/03/17 10:52:04;;;;;;;7.82;0.95;;;;;;;11.09;100.00;100222.94;5072132;28;20119;-74
2024/03/17 10:54:30;;;;;;;1.00;0.90;;;;;;;11.20;100.00;100218.91;5055659;28;20035;-73
2024/03/17 10:57:01;;;;;;;0.65;0.65;;;;;;;11.37;100.00;100225.66;5055483;28;20032;-74
2024/03/17 10:59:41;;;;;;;1.55;0.60;;;;;;;11.59;100.00;100228.31;5055071;28;20456;-73
2024/03/17 11:02:28;;;;;;;0.50;0.50;;;;;;;11.77;100.00;100231.34;5055221;28;20115;-74
2024/03/17 11:04:56;;;;;;;0.50;0.50;;;;;;;11.94;100.00;100229.25;5039317;28;20028;-73
2024/03/17 11:07:22;;;;;;;0.80;0.80;;;;;;;12.00;100.00;100227.59;5072135;28;20028;-73
2024/03/17 11:09:49;;;;;;;2.05;0.70;;;;;;;12.30;100.00;100236.25;5039269;28;20036;-74
2024/03/17 11:13:19;;;;;;;0.55;0.55;;;;;;;12.74;100.00;100235.81;5055509;28;20090;-74
2024/03/17 11:15:38;;;;;;;2.28;0.60;;;;;;;12.85;100.00;100237.09;5068994;28;20062;-74
2024/03/17 11:18:09;;;;;;;0.60;0.60;;;;;;;12.86;100.00;100233.38;5054412;28;20040;-74
2024/03/17 11:20:39;;;;;;;1.38;0.80;;;;;;;12.88;100.00;100244.78;5054848;28;20031;-74
2024/03/17 11:23:05;;;;;;;0.70;0.60;;;;;;;12.87;100.00;100242.31;5072337;28;20033;-74